sensor_id;sensor_type;location;lat;lon;timestamp;P1;durP1;ratioP1;P2;durP2;ratioP2
35324;SDS011;35135;47.510;19.036;2022-10-30T00:01:27;17.17;;;15.38;;
35324;SDS011;35135;47.510;19.036;2022-10-30T00:03:52;16.98;;;15.15;;
35324;SDS011;35135;47.510;19.036;2022-10-30T00:06:18;16.20;;;14.50;;
35324;SDS011;35135;47.510;19.036;2022-10-30T00:08:44;15.60;;;14.00;;
35324;SDS011;35135;47.510;19.036;2022-10-30T00:11:10;16.63;;;14.80;;
35324;SDS011;35135;47.510;19.036;2022-10-30T00:13:37;15.65;;;14.02;;
35324;SDS011;35135;47.510;19.036;2022-10-30T00:16:04;16.70;;;14.88;;
35324;SDS011;35135;47.510;19.036;2022-10-30T00:18:33;16.38;;;14.68;;
35324;SDS011;35135;47.510;19.036;2022-10-30T00:21:06;16.55;;;14.85;;
35324;SDS011;35135;47.510;19.036;2022-10-30T00:23:37;16.08;;;14.38;;
35324;SDS011;35135;47.510;19.036;2022-10-30T00:26:04;16.70;;;14.90;;
35324;SDS011;35135;47.510;19.036;2022-10-30T00:28:30;15.25;;;13.65;;
35324;SDS011;35135;47.510;19.036;2022-10-30T00:31:00;15.93;;;14.35;;
35324;SDS011;35135;47.510;19.036;2022-10-30T00:33:26;15.18;;;13.57;;
35324;SDS011;35135;47.510;19.036;2022-10-30T00:35:52;15.65;;;14.05;;
35324;SDS011;35135;47.510;19.036;2022-10-30T00:38:18;15.23;;;13.63;;
35324;SDS011;35135;47.510;19.036;2022-10-30T00:40:43;15.60;;;14.00;;
35324;SDS011;35135;47.510;19.036;2022-10-30T00:45:53;15.38;;;13.77;;
35324;SDS011;35135;47.510;19.036;2022-10-30T00:48:20;15.45;;;13.82;;
35324;SDS011;35135;47.510;19.036;2022-10-30T00:50:49;15.65;;;14.00;;
35324;SDS011;35135;47.510;19.036;2022-10-30T00:53:16;15.75;;;14.23;;
35324;SDS011;35135;47.510;19.036;2022-10-30T00:55:48;15.65;;;13.93;;
35324;SDS011;35135;47.510;19.036;2022-10-30T00:58:18;15.20;;;13.70;;
35324;SDS011;35135;47.510;19.036;2022-10-30T01:00:49;15.07;;;13.57;;
35324;SDS011;35135;47.510;19.036;2022-10-30T01:03:18;15.57;;;14.00;;
35324;SDS011;35135;47.510;19.036;2022-10-30T01:05:46;15.93;;;14.27;;
35324;SDS011;35135;47.510;19.036;2022-10-30T01:08:16;14.27;;;12.88;;
35324;SDS011;35135;47.510;19.036;2022-10-30T01:10:42;14.80;;;13.30;;
35324;SDS011;35135;47.510;19.036;2022-10-30T01:13:08;15.05;;;13.55;;
35324;SDS011;35135;47.510;19.036;2022-10-30T01:15:35;14.90;;;13.30;;
35324;SDS011;35135;47.510;19.036;2022-10-30T01:18:13;14.55;;;13.07;;
35324;SDS011;35135;47.510;19.036;2022-10-30T01:20:58;14.68;;;13.27;;
35324;SDS011;35135;47.510;19.036;2022-10-30T01:23:47;15.27;;;13.77;;
35324;SDS011;35135;47.510;19.036;2022-10-30T01:26:24;14.88;;;13.30;;
35324;SDS011;35135;47.510;19.036;2022-10-30T01:31:57;15.20;;;13.65;;
35324;SDS011;35135;47.510;19.036;2022-10-30T01:39:54;14.57;;;13.07;;
35324;SDS011;35135;47.510;19.036;2022-10-30T01:58:49;13.47;;;12.17;;
35324;SDS011;35135;47.510;19.036;2022-10-30T02:01:22;13.32;;;12.02;;
35324;SDS011;35135;47.510;19.036;2022-10-30T02:03:48;13.90;;;12.60;;
35324;SDS011;35135;47.510;19.036;2022-10-30T02:06:15;13.13;;;11.82;;
35324;SDS011;35135;47.510;19.036;2022-10-30T02:08:41;13.07;;;11.77;;
35324;SDS011;35135;47.510;19.036;2022-10-30T02:11:07;13.40;;;11.75;;
35324;SDS011;35135;47.510;19.036;2022-10-30T02:13:35;13.80;;;12.35;;
35324;SDS011;35135;47.510;19.036;2022-10-30T02:16:01;13.68;;;12.30;;
35324;SDS011;35135;47.510;19.036;2022-10-30T02:18:27;13.80;;;12.20;;
35324;SDS011;35135;47.510;19.036;2022-10-30T02:20:54;12.73;;;11.43;;
35324;SDS011;35135;47.510;19.036;2022-10-30T02:23:19;12.30;;;11.10;;
35324;SDS011;35135;47.510;19.036;2022-10-30T02:25:46;13.07;;;11.77;;
35324;SDS011;35135;47.510;19.036;2022-10-30T02:28:12;12.80;;;11.60;;
35324;SDS011;35135;47.510;19.036;2022-10-30T02:30:38;13.32;;;12.02;;
35324;SDS011;35135;47.510;19.036;2022-10-30T02:33:04;13.00;;;11.70;;
35324;SDS011;35135;47.510;19.036;2022-10-30T02:35:30;12.50;;;11.30;;
35324;SDS011;35135;47.510;19.036;2022-10-30T02:37:56;12.27;;;11.07;;
35324;SDS011;35135;47.510;19.036;2022-10-30T02:40:21;13.10;;;11.80;;
35324;SDS011;35135;47.510;19.036;2022-10-30T02:42:53;13.32;;;12.02;;
35324;SDS011;35135;47.510;19.036;2022-10-30T02:45:19;13.10;;;11.80;;
35324;SDS011;35135;47.510;19.036;2022-10-30T02:47:45;12.63;;;11.45;;
35324;SDS011;35135;47.510;19.036;2022-10-30T02:50:11;12.00;;;10.80;;
35324;SDS011;35135;47.510;19.036;2022-10-30T02:52:37;12.77;;;11.48;;
35324;SDS011;35135;47.510;19.036;2022-10-30T02:55:02;11.00;;;9.90;;
35324;SDS011;35135;47.510;19.036;2022-10-30T02:57:28;11.15;;;10.05;;
35324;SDS011;35135;47.510;19.036;2022-10-30T02:59:54;12.90;;;11.52;;
35324;SDS011;35135;47.510;19.036;2022-10-30T03:02:20;12.23;;;11.13;;
35324;SDS011;35135;47.510;19.036;2022-10-30T03:04:45;12.20;;;11.10;;
35324;SDS011;35135;47.510;19.036;2022-10-30T03:07:11;12.30;;;11.18;;
35324;SDS011;35135;47.510;19.036;2022-10-30T03:09:37;11.32;;;10.32;;
35324;SDS011;35135;47.510;19.036;2022-10-30T03:12:02;12.05;;;10.90;;
35324;SDS011;35135;47.510;19.036;2022-10-30T03:14:28;11.77;;;10.57;;
35324;SDS011;35135;47.510;19.036;2022-10-30T03:16:54;11.75;;;10.65;;
35324;SDS011;35135;47.510;19.036;2022-10-30T03:19:19;11.57;;;10.48;;
35324;SDS011;35135;47.510;19.036;2022-10-30T03:21:45;12.27;;;10.73;;
35324;SDS011;35135;47.510;19.036;2022-10-30T03:24:11;11.48;;;10.38;;
35324;SDS011;35135;47.510;19.036;2022-10-30T03:26:37;11.95;;;10.70;;
35324;SDS011;35135;47.510;19.036;2022-10-30T03:29:02;12.07;;;10.98;;
35324;SDS011;35135;47.510;19.036;2022-10-30T03:31:29;10.85;;;9.85;;
35324;SDS011;35135;47.510;19.036;2022-10-30T03:33:56;11.38;;;10.27;;
35324;SDS011;35135;47.510;19.036;2022-10-30T03:36:22;10.65;;;9.55;;
35324;SDS011;35135;47.510;19.036;2022-10-30T03:38:49;11.30;;;10.30;;
35324;SDS011;35135;47.510;19.036;2022-10-30T03:41:15;10.88;;;9.88;;
35324;SDS011;35135;47.510;19.036;2022-10-30T03:43:41;11.57;;;10.38;;
35324;SDS011;35135;47.510;19.036;2022-10-30T03:46:07;10.77;;;9.70;;
35324;SDS011;35135;47.510;19.036;2022-10-30T03:48:33;11.18;;;10.18;;
35324;SDS011;35135;47.510;19.036;2022-10-30T03:50:59;10.82;;;9.82;;
35324;SDS011;35135;47.510;19.036;2022-10-30T03:53:25;11.23;;;10.20;;
35324;SDS011;35135;47.510;19.036;2022-10-30T03:55:55;10.70;;;9.70;;
35324;SDS011;35135;47.510;19.036;2022-10-30T03:58:22;10.48;;;9.48;;
35324;SDS011;35135;47.510;19.036;2022-10-30T04:00:48;10.82;;;9.77;;
35324;SDS011;35135;47.510;19.036;2022-10-30T04:03:13;10.30;;;9.35;;
35324;SDS011;35135;47.510;19.036;2022-10-30T04:05:39;10.80;;;9.80;;
35324;SDS011;35135;47.510;19.036;2022-10-30T04:08:05;10.38;;;9.38;;
35324;SDS011;35135;47.510;19.036;2022-10-30T04:10:34;10.80;;;9.70;;
35324;SDS011;35135;47.510;19.036;2022-10-30T04:13:00;11.13;;;10.13;;
35324;SDS011;35135;47.510;19.036;2022-10-30T04:15:27;10.07;;;9.10;;
35324;SDS011;35135;47.510;19.036;2022-10-30T04:17:53;9.93;;;9.00;;
35324;SDS011;35135;47.510;19.036;2022-10-30T04:20:19;9.27;;;8.38;;
35324;SDS011;35135;47.510;19.036;2022-10-30T04:22:46;10.20;;;9.25;;
35324;SDS011;35135;47.510;19.036;2022-10-30T04:25:11;10.32;;;9.32;;
35324;SDS011;35135;47.510;19.036;2022-10-30T04:27:41;9.55;;;8.65;;
35324;SDS011;35135;47.510;19.036;2022-10-30T04:30:09;9.40;;;8.55;;
35324;SDS011;35135;47.510;19.036;2022-10-30T04:32:36;10.80;;;9.80;;
35324;SDS011;35135;47.510;19.036;2022-10-30T04:35:09;10.65;;;9.65;;
35324;SDS011;35135;47.510;19.036;2022-10-30T04:37:35;9.73;;;8.82;;
35324;SDS011;35135;47.510;19.036;2022-10-30T04:40:00;9.93;;;9.00;;
35324;SDS011;35135;47.510;19.036;2022-10-30T04:42:26;9.52;;;8.73;;
35324;SDS011;35135;47.510;19.036;2022-10-30T04:44:52;9.73;;;8.75;;
35324;SDS011;35135;47.510;19.036;2022-10-30T04:47:17;9.13;;;8.23;;
35324;SDS011;35135;47.510;19.036;2022-10-30T04:49:43;9.38;;;8.57;;
35324;SDS011;35135;47.510;19.036;2022-10-30T04:52:09;9.82;;;8.93;;
35324;SDS011;35135;47.510;19.036;2022-10-30T04:54:34;9.70;;;8.80;;
35324;SDS011;35135;47.510;19.036;2022-10-30T04:57:00;10.15;;;9.18;;
35324;SDS011;35135;47.510;19.036;2022-10-30T04:59:25;9.52;;;8.63;;
35324;SDS011;35135;47.510;19.036;2022-10-30T05:01:51;9.35;;;8.48;;
35324;SDS011;35135;47.510;19.036;2022-10-30T05:04:16;9.93;;;9.02;;
35324;SDS011;35135;47.510;19.036;2022-10-30T05:06:42;9.30;;;8.50;;
35324;SDS011;35135;47.510;19.036;2022-10-30T05:09:08;9.65;;;8.75;;
35324;SDS011;35135;47.510;19.036;2022-10-30T05:11:33;9.48;;;8.60;;
35324;SDS011;35135;47.510;19.036;2022-10-30T05:13:59;9.35;;;8.45;;
35324;SDS011;35135;47.510;19.036;2022-10-30T05:16:24;8.60;;;7.85;;
35324;SDS011;35135;47.510;19.036;2022-10-30T05:18:50;9.88;;;8.98;;
35324;SDS011;35135;47.510;19.036;2022-10-30T05:21:16;8.23;;;7.50;;
35324;SDS011;35135;47.510;19.036;2022-10-30T05:23:41;8.85;;;8.05;;
35324;SDS011;35135;47.510;19.036;2022-10-30T05:26:07;8.88;;;8.07;;
35324;SDS011;35135;47.510;19.036;2022-10-30T05:28:33;9.50;;;8.60;;
35324;SDS011;35135;47.510;19.036;2022-10-30T05:31:00;8.70;;;7.90;;
35324;SDS011;35135;47.510;19.036;2022-10-30T05:33:25;8.48;;;7.68;;
35324;SDS011;35135;47.510;19.036;2022-10-30T05:35:51;8.73;;;7.90;;
35324;SDS011;35135;47.510;19.036;2022-10-30T05:38:16;9.13;;;8.23;;
35324;SDS011;35135;47.510;19.036;2022-10-30T05:40:44;8.82;;;8.02;;
35324;SDS011;35135;47.510;19.036;2022-10-30T05:43:10;8.95;;;8.15;;
35324;SDS011;35135;47.510;19.036;2022-10-30T05:45:36;8.55;;;7.78;;
35324;SDS011;35135;47.510;19.036;2022-10-30T05:48:03;9.32;;;8.50;;
35324;SDS011;35135;47.510;19.036;2022-10-30T05:50:30;8.50;;;7.60;;
35324;SDS011;35135;47.510;19.036;2022-10-30T05:53:00;8.27;;;7.57;;
35324;SDS011;35135;47.510;19.036;2022-10-30T05:55:28;9.33;;;8.47;;
35324;SDS011;35135;47.510;19.036;2022-10-30T05:57:55;8.80;;;8.00;;
35324;SDS011;35135;47.510;19.036;2022-10-30T06:00:21;8.48;;;7.68;;
35324;SDS011;35135;47.510;19.036;2022-10-30T06:02:47;8.45;;;7.60;;
35324;SDS011;35135;47.510;19.036;2022-10-30T06:05:12;8.77;;;7.97;;
35324;SDS011;35135;47.510;19.036;2022-10-30T06:07:38;8.85;;;8.05;;
35324;SDS011;35135;47.510;19.036;2022-10-30T06:10:04;8.43;;;7.57;;
35324;SDS011;35135;47.510;19.036;2022-10-30T06:12:30;9.20;;;8.30;;
35324;SDS011;35135;47.510;19.036;2022-10-30T06:14:56;8.38;;;7.63;;
35324;SDS011;35135;47.510;19.036;2022-10-30T06:17:21;8.70;;;7.90;;
35324;SDS011;35135;47.510;19.036;2022-10-30T06:19:47;8.20;;;7.40;;
35324;SDS011;35135;47.510;19.036;2022-10-30T06:22:13;7.95;;;7.25;;
35324;SDS011;35135;47.510;19.036;2022-10-30T06:24:38;8.95;;;8.05;;
35324;SDS011;35135;47.510;19.036;2022-10-30T06:27:04;8.77;;;7.90;;
35324;SDS011;35135;47.510;19.036;2022-10-30T06:29:29;8.18;;;7.38;;
35324;SDS011;35135;47.510;19.036;2022-10-30T06:31:55;9.23;;;7.50;;
35324;SDS011;35135;47.510;19.036;2022-10-30T06:34:20;8.50;;;7.70;;
35324;SDS011;35135;47.510;19.036;2022-10-30T06:36:46;8.55;;;7.75;;
35324;SDS011;35135;47.510;19.036;2022-10-30T06:39:12;8.40;;;7.60;;
35324;SDS011;35135;47.510;19.036;2022-10-30T06:41:37;8.50;;;7.70;;
35324;SDS011;35135;47.510;19.036;2022-10-30T06:44:03;8.10;;;7.40;;
35324;SDS011;35135;47.510;19.036;2022-10-30T06:46:29;8.80;;;8.00;;
35324;SDS011;35135;47.510;19.036;2022-10-30T06:48:54;8.05;;;7.35;;
35324;SDS011;35135;47.510;19.036;2022-10-30T06:51:20;8.25;;;7.45;;
35324;SDS011;35135;47.510;19.036;2022-10-30T06:53:46;8.63;;;7.78;;
35324;SDS011;35135;47.510;19.036;2022-10-30T06:56:11;7.78;;;7.07;;
35324;SDS011;35135;47.510;19.036;2022-10-30T06:58:37;7.50;;;6.80;;
35324;SDS011;35135;47.510;19.036;2022-10-30T07:01:06;7.90;;;7.20;;
35324;SDS011;35135;47.510;19.036;2022-10-30T07:03:33;7.50;;;6.75;;
35324;SDS011;35135;47.510;19.036;2022-10-30T07:05:58;8.00;;;7.03;;
35324;SDS011;35135;47.510;19.036;2022-10-30T07:08:25;7.85;;;7.10;;
35324;SDS011;35135;47.510;19.036;2022-10-30T07:10:50;9.10;;;7.47;;
35324;SDS011;35135;47.510;19.036;2022-10-30T07:13:16;7.63;;;6.93;;
35324;SDS011;35135;47.510;19.036;2022-10-30T07:15:42;7.00;;;6.30;;
35324;SDS011;35135;47.510;19.036;2022-10-30T07:18:08;8.50;;;7.63;;
35324;SDS011;35135;47.510;19.036;2022-10-30T07:20:34;8.23;;;7.43;;
35324;SDS011;35135;47.510;19.036;2022-10-30T07:23:01;8.25;;;7.45;;
35324;SDS011;35135;47.510;19.036;2022-10-30T07:25:27;8.50;;;7.60;;
35324;SDS011;35135;47.510;19.036;2022-10-30T07:27:53;8.45;;;7.65;;
35324;SDS011;35135;47.510;19.036;2022-10-30T07:30:21;7.93;;;7.22;;
35324;SDS011;35135;47.510;19.036;2022-10-30T07:32:57;7.85;;;7.05;;
35324;SDS011;35135;47.510;19.036;2022-10-30T07:35:25;7.70;;;6.93;;
35324;SDS011;35135;47.510;19.036;2022-10-30T07:37:51;8.18;;;7.38;;
35324;SDS011;35135;47.510;19.036;2022-10-30T07:40:17;7.68;;;6.97;;
35324;SDS011;35135;47.510;19.036;2022-10-30T07:42:43;7.25;;;6.55;;
35324;SDS011;35135;47.510;19.036;2022-10-30T07:45:09;9.40;;;6.70;;
35324;SDS011;35135;47.510;19.036;2022-10-30T07:47:41;8.48;;;7.32;;
35324;SDS011;35135;47.510;19.036;2022-10-30T07:50:08;8.45;;;6.60;;
35324;SDS011;35135;47.510;19.036;2022-10-30T07:52:34;8.93;;;7.68;;
35324;SDS011;35135;47.510;19.036;2022-10-30T07:55:00;10.95;;;7.35;;
35324;SDS011;35135;47.510;19.036;2022-10-30T07:57:26;10.77;;;7.40;;
35324;SDS011;35135;47.510;19.036;2022-10-30T07:59:51;8.82;;;6.82;;
35324;SDS011;35135;47.510;19.036;2022-10-30T08:02:17;8.15;;;7.30;;
35324;SDS011;35135;47.510;19.036;2022-10-30T08:04:42;13.13;;;7.60;;
35324;SDS011;35135;47.510;19.036;2022-10-30T08:07:08;15.07;;;7.53;;
35324;SDS011;35135;47.510;19.036;2022-10-30T08:09:34;12.02;;;7.38;;
35324;SDS011;35135;47.510;19.036;2022-10-30T08:11:59;16.70;;;7.47;;
35324;SDS011;35135;47.510;19.036;2022-10-30T08:14:25;15.98;;;8.48;;
35324;SDS011;35135;47.510;19.036;2022-10-30T08:16:50;15.73;;;8.93;;
35324;SDS011;35135;47.510;19.036;2022-10-30T08:19:16;13.43;;;9.98;;
35324;SDS011;35135;47.510;19.036;2022-10-30T08:21:42;16.50;;;9.60;;
35324;SDS011;35135;47.510;19.036;2022-10-30T08:24:07;16.38;;;9.65;;
35324;SDS011;35135;47.510;19.036;2022-10-30T08:26:33;15.15;;;9.75;;
35324;SDS011;35135;47.510;19.036;2022-10-30T08:28:59;16.00;;;10.30;;
35324;SDS011;35135;47.510;19.036;2022-10-30T08:31:25;13.40;;;9.65;;
35324;SDS011;35135;47.510;19.036;2022-10-30T08:33:50;14.35;;;9.07;;
35324;SDS011;35135;47.510;19.036;2022-10-30T08:36:16;13.07;;;10.00;;
35324;SDS011;35135;47.510;19.036;2022-10-30T08:38:42;13.80;;;9.23;;
35324;SDS011;35135;47.510;19.036;2022-10-30T08:41:07;18.05;;;9.73;;
35324;SDS011;35135;47.510;19.036;2022-10-30T08:43:33;15.15;;;9.20;;
35324;SDS011;35135;47.510;19.036;2022-10-30T08:45:58;12.52;;;8.63;;
35324;SDS011;35135;47.510;19.036;2022-10-30T08:48:25;11.27;;;8.93;;
35324;SDS011;35135;47.510;19.036;2022-10-30T08:50:50;13.35;;;8.85;;
35324;SDS011;35135;47.510;19.036;2022-10-30T08:53:16;13.63;;;8.68;;
35324;SDS011;35135;47.510;19.036;2022-10-30T08:55:42;11.75;;;8.43;;
35324;SDS011;35135;47.510;19.036;2022-10-30T08:58:08;12.48;;;9.05;;
35324;SDS011;35135;47.510;19.036;2022-10-30T09:00:33;10.82;;;7.97;;
35324;SDS011;35135;47.510;19.036;2022-10-30T09:02:59;11.00;;;8.55;;
35324;SDS011;35135;47.510;19.036;2022-10-30T09:05:25;9.35;;;8.27;;
35324;SDS011;35135;47.510;19.036;2022-10-30T09:07:54;9.77;;;8.68;;
35324;SDS011;35135;47.510;19.036;2022-10-30T09:10:21;12.18;;;8.55;;
35324;SDS011;35135;47.510;19.036;2022-10-30T09:12:47;10.00;;;7.80;;
35324;SDS011;35135;47.510;19.036;2022-10-30T09:15:18;12.32;;;8.23;;
35324;SDS011;35135;47.510;19.036;2022-10-30T09:17:44;12.02;;;8.50;;
35324;SDS011;35135;47.510;19.036;2022-10-30T09:20:09;9.80;;;8.35;;
35324;SDS011;35135;47.510;19.036;2022-10-30T09:22:38;10.00;;;7.57;;
35324;SDS011;35135;47.510;19.036;2022-10-30T09:25:05;11.55;;;7.63;;
35324;SDS011;35135;47.510;19.036;2022-10-30T09:27:34;8.68;;;7.50;;
35324;SDS011;35135;47.510;19.036;2022-10-30T09:32:29;9.98;;;7.75;;
35324;SDS011;35135;47.510;19.036;2022-10-30T09:34:55;11.73;;;8.25;;
35324;SDS011;35135;47.510;19.036;2022-10-30T09:37:21;9.65;;;7.18;;
35324;SDS011;35135;47.510;19.036;2022-10-30T09:39:48;8.88;;;7.82;;
35324;SDS011;35135;47.510;19.036;2022-10-30T09:42:18;11.38;;;8.13;;
35324;SDS011;35135;47.510;19.036;2022-10-30T09:44:59;8.25;;;7.45;;
35324;SDS011;35135;47.510;19.036;2022-10-30T10:04:39;8.70;;;6.95;;
35324;SDS011;35135;47.510;19.036;2022-10-30T10:07:21;10.70;;;7.57;;
35324;SDS011;35135;47.510;19.036;2022-10-30T10:10:00;8.00;;;7.18;;
35324;SDS011;35135;47.510;19.036;2022-10-30T10:12:41;8.32;;;7.53;;
35324;SDS011;35135;47.510;19.036;2022-10-30T10:15:15;7.70;;;6.90;;
35324;SDS011;35135;47.510;19.036;2022-10-30T10:17:52;8.73;;;7.05;;
35324;SDS011;35135;47.510;19.036;2022-10-30T10:20:38;7.85;;;7.10;;
35324;SDS011;35135;47.510;19.036;2022-10-30T10:23:16;8.35;;;7.10;;
35324;SDS011;35135;47.510;19.036;2022-10-30T10:25:59;9.37;;;6.70;;
35324;SDS011;35135;47.510;19.036;2022-10-30T10:28:55;8.25;;;7.25;;
35324;SDS011;35135;47.510;19.036;2022-10-30T10:34:13;7.72;;;6.93;;
35324;SDS011;35135;47.510;19.036;2022-10-30T10:42:51;7.57;;;6.88;;
35324;SDS011;35135;47.510;19.036;2022-10-30T10:51:24;7.25;;;6.40;;
35324;SDS011;35135;47.510;19.036;2022-10-30T10:54:14;7.72;;;6.93;;
35324;SDS011;35135;47.510;19.036;2022-10-30T10:56:45;7.47;;;6.78;;
35324;SDS011;35135;47.510;19.036;2022-10-30T10:59:47;7.80;;;6.93;;
35324;SDS011;35135;47.510;19.036;2022-10-30T11:04:38;8.07;;;7.25;;
35324;SDS011;35135;47.510;19.036;2022-10-30T11:09:42;6.93;;;6.22;;
35324;SDS011;35135;47.510;19.036;2022-10-30T11:12:10;8.23;;;7.05;;
35324;SDS011;35135;47.510;19.036;2022-10-30T11:14:36;7.50;;;6.53;;
35324;SDS011;35135;47.510;19.036;2022-10-30T11:19:51;7.53;;;6.30;;
35324;SDS011;35135;47.510;19.036;2022-10-30T11:22:35;7.40;;;6.70;;
35324;SDS011;35135;47.510;19.036;2022-10-30T11:25:20;7.82;;;6.88;;
35324;SDS011;35135;47.510;19.036;2022-10-30T11:27:54;7.22;;;6.18;;
35324;SDS011;35135;47.510;19.036;2022-10-30T11:30:22;7.43;;;6.07;;
35324;SDS011;35135;47.510;19.036;2022-10-30T11:32:50;7.05;;;6.35;;
35324;SDS011;35135;47.510;19.036;2022-10-30T11:35:16;7.50;;;6.57;;
35324;SDS011;35135;47.510;19.036;2022-10-30T11:37:44;8.40;;;6.65;;
35324;SDS011;35135;47.510;19.036;2022-10-30T11:42:41;7.95;;;6.70;;
35324;SDS011;35135;47.510;19.036;2022-10-30T11:47:40;7.18;;;6.43;;
35324;SDS011;35135;47.510;19.036;2022-10-30T11:50:13;7.90;;;6.93;;
35324;SDS011;35135;47.510;19.036;2022-10-30T11:52:46;7.55;;;6.85;;
35324;SDS011;35135;47.510;19.036;2022-10-30T11:57:55;8.80;;;6.75;;
35324;SDS011;35135;47.510;19.036;2022-10-30T12:00:23;6.88;;;6.18;;
35324;SDS011;35135;47.510;19.036;2022-10-30T12:02:51;7.30;;;6.60;;
35324;SDS011;35135;47.510;19.036;2022-10-30T12:07:51;7.30;;;6.20;;
35324;SDS011;35135;47.510;19.036;2022-10-30T12:10:25;7.07;;;6.38;;
35324;SDS011;35135;47.510;19.036;2022-10-30T12:12:54;7.68;;;6.88;;
35324;SDS011;35135;47.510;19.036;2022-10-30T12:15:21;6.70;;;6.00;;
35324;SDS011;35135;47.510;19.036;2022-10-30T12:17:53;7.10;;;6.40;;
35324;SDS011;35135;47.510;19.036;2022-10-30T12:20:23;7.47;;;6.78;;
35324;SDS011;35135;47.510;19.036;2022-10-30T12:22:49;8.80;;;7.22;;
35324;SDS011;35135;47.510;19.036;2022-10-30T12:27:59;6.82;;;6.03;;
35324;SDS011;35135;47.510;19.036;2022-10-30T12:30:31;7.85;;;6.30;;
35324;SDS011;35135;47.510;19.036;2022-10-30T12:35:43;6.97;;;6.18;;
35324;SDS011;35135;47.510;19.036;2022-10-30T12:46:30;8.85;;;6.88;;
35324;SDS011;35135;47.510;19.036;2022-10-30T12:52:07;7.82;;;7.03;;
35324;SDS011;35135;47.510;19.036;2022-10-30T12:54:55;7.25;;;6.55;;
35324;SDS011;35135;47.510;19.036;2022-10-30T13:03:34;6.75;;;6.05;;
35324;SDS011;35135;47.510;19.036;2022-10-30T13:06:12;9.13;;;6.35;;
35324;SDS011;35135;47.510;19.036;2022-10-30T13:11:27;12.45;;;7.05;;
35324;SDS011;35135;47.510;19.036;2022-10-30T13:14:12;9.27;;;7.18;;
35324;SDS011;35135;47.510;19.036;2022-10-30T13:16:43;11.00;;;7.47;;
35324;SDS011;35135;47.510;19.036;2022-10-30T13:19:10;10.70;;;7.90;;
35324;SDS011;35135;47.510;19.036;2022-10-30T13:21:48;13.40;;;8.65;;
35324;SDS011;35135;47.510;19.036;2022-10-30T13:24:22;10.88;;;8.63;;
35324;SDS011;35135;47.510;19.036;2022-10-30T13:27:15;9.85;;;8.07;;
35324;SDS011;35135;47.510;19.036;2022-10-30T13:29:55;11.50;;;8.40;;
35324;SDS011;35135;47.510;19.036;2022-10-30T13:33:04;9.75;;;7.90;;
35324;SDS011;35135;47.510;19.036;2022-10-30T13:35:37;11.80;;;7.95;;
35324;SDS011;35135;47.510;19.036;2022-10-30T13:38:26;10.50;;;8.25;;
35324;SDS011;35135;47.510;19.036;2022-10-30T13:44:12;10.07;;;8.32;;
35324;SDS011;35135;47.510;19.036;2022-10-30T13:47:08;12.02;;;7.90;;
35324;SDS011;35135;47.510;19.036;2022-10-30T13:52:36;12.00;;;8.25;;
35324;SDS011;35135;47.510;19.036;2022-10-30T13:57:54;9.75;;;7.50;;
35324;SDS011;35135;47.510;19.036;2022-10-30T14:03:42;10.77;;;7.10;;
35324;SDS011;35135;47.510;19.036;2022-10-30T14:11:44;9.90;;;7.30;;
35324;SDS011;35135;47.510;19.036;2022-10-30T14:22:38;9.02;;;7.28;;
35324;SDS011;35135;47.510;19.036;2022-10-30T14:25:11;10.98;;;7.07;;
35324;SDS011;35135;47.510;19.036;2022-10-30T14:27:40;10.68;;;6.88;;
35324;SDS011;35135;47.510;19.036;2022-10-30T14:30:14;9.48;;;7.13;;
35324;SDS011;35135;47.510;19.036;2022-10-30T14:32:46;12.55;;;7.20;;
35324;SDS011;35135;47.510;19.036;2022-10-30T14:35:27;9.93;;;6.82;;
35324;SDS011;35135;47.510;19.036;2022-10-30T14:38:13;10.20;;;7.85;;
35324;SDS011;35135;47.510;19.036;2022-10-30T14:46:25;13.93;;;7.50;;
35324;SDS011;35135;47.510;19.036;2022-10-30T14:49:14;17.25;;;7.63;;
35324;SDS011;35135;47.510;19.036;2022-10-30T14:51:53;14.88;;;7.95;;
35324;SDS011;35135;47.510;19.036;2022-10-30T14:54:41;11.68;;;7.90;;
35324;SDS011;35135;47.510;19.036;2022-10-30T14:57:22;13.57;;;8.20;;
35324;SDS011;35135;47.510;19.036;2022-10-30T15:00:27;19.13;;;8.75;;
35324;SDS011;35135;47.510;19.036;2022-10-30T15:03:04;11.60;;;7.80;;
35324;SDS011;35135;47.510;19.036;2022-10-30T15:05:53;12.85;;;8.68;;
35324;SDS011;35135;47.510;19.036;2022-10-30T15:08:43;12.40;;;8.52;;
35324;SDS011;35135;47.510;19.036;2022-10-30T15:14:08;18.60;;;8.20;;
35324;SDS011;35135;47.510;19.036;2022-10-30T15:16:39;12.65;;;8.90;;
35324;SDS011;35135;47.510;19.036;2022-10-30T15:19:06;12.57;;;9.07;;
35324;SDS011;35135;47.510;19.036;2022-10-30T15:21:43;11.75;;;8.63;;
35324;SDS011;35135;47.510;19.036;2022-10-30T15:24:12;12.43;;;8.82;;
35324;SDS011;35135;47.510;19.036;2022-10-30T15:26:46;12.65;;;8.95;;
35324;SDS011;35135;47.510;19.036;2022-10-30T15:29:18;15.77;;;8.38;;
35324;SDS011;35135;47.510;19.036;2022-10-30T15:32:00;14.03;;;8.77;;
35324;SDS011;35135;47.510;19.036;2022-10-30T15:34:27;13.90;;;9.80;;
35324;SDS011;35135;47.510;19.036;2022-10-30T15:36:54;18.40;;;9.18;;
35324;SDS011;35135;47.510;19.036;2022-10-30T15:39:20;11.63;;;8.77;;
35324;SDS011;35135;47.510;19.036;2022-10-30T15:44:21;13.60;;;8.93;;
35324;SDS011;35135;47.510;19.036;2022-10-30T15:46:51;14.73;;;8.68;;
35324;SDS011;35135;47.510;19.036;2022-10-30T15:49:20;12.57;;;8.40;;
35324;SDS011;35135;47.510;19.036;2022-10-30T15:51:55;13.57;;;8.88;;
35324;SDS011;35135;47.510;19.036;2022-10-30T15:54:21;13.45;;;8.43;;
35324;SDS011;35135;47.510;19.036;2022-10-30T15:56:49;12.68;;;8.15;;
35324;SDS011;35135;47.510;19.036;2022-10-30T15:59:21;11.68;;;7.95;;
35324;SDS011;35135;47.510;19.036;2022-10-30T16:01:48;12.10;;;7.80;;
35324;SDS011;35135;47.510;19.036;2022-10-30T16:04:18;9.38;;;7.78;;
35324;SDS011;35135;47.510;19.036;2022-10-30T16:06:57;12.07;;;8.30;;
35324;SDS011;35135;47.510;19.036;2022-10-30T16:09:25;11.07;;;7.80;;
35324;SDS011;35135;47.510;19.036;2022-10-30T16:11:53;11.25;;;8.15;;
35324;SDS011;35135;47.510;19.036;2022-10-30T16:14:23;10.38;;;7.95;;
35324;SDS011;35135;47.510;19.036;2022-10-30T16:16:51;11.52;;;7.30;;
35324;SDS011;35135;47.510;19.036;2022-10-30T16:19:18;10.55;;;7.18;;
35324;SDS011;35135;47.510;19.036;2022-10-30T16:21:51;11.63;;;7.90;;
35324;SDS011;35135;47.510;19.036;2022-10-30T16:24:18;9.90;;;7.55;;
35324;SDS011;35135;47.510;19.036;2022-10-30T16:27:06;11.52;;;7.70;;
35324;SDS011;35135;47.510;19.036;2022-10-30T16:29:40;8.18;;;7.38;;
35324;SDS011;35135;47.510;19.036;2022-10-30T16:32:10;9.73;;;7.85;;
35324;SDS011;35135;47.510;19.036;2022-10-30T16:34:37;10.52;;;7.88;;
35324;SDS011;35135;47.510;19.036;2022-10-30T16:37:05;10.93;;;8.05;;
35324;SDS011;35135;47.510;19.036;2022-10-30T16:39:35;10.65;;;7.53;;
35324;SDS011;35135;47.510;19.036;2022-10-30T16:42:01;8.40;;;7.05;;
35324;SDS011;35135;47.510;19.036;2022-10-30T16:44:31;11.45;;;8.02;;
35324;SDS011;35135;47.510;19.036;2022-10-30T16:47:01;10.35;;;7.38;;
35324;SDS011;35135;47.510;19.036;2022-10-30T16:49:37;9.23;;;7.10;;
35324;SDS011;35135;47.510;19.036;2022-10-30T16:52:13;9.05;;;7.35;;
35324;SDS011;35135;47.510;19.036;2022-10-30T16:54:41;10.05;;;7.70;;
35324;SDS011;35135;47.510;19.036;2022-10-30T16:57:16;11.07;;;7.20;;
35324;SDS011;35135;47.510;19.036;2022-10-30T16:59:49;10.48;;;7.40;;